sensor_id;sensor_type;location;lat;lon;timestamp;temperature;humidity
30244;DHT22;64022;53.652;9.792;2024-01-15T00:02:09;22.00;55.30
30244;DHT22;64022;53.652;9.792;2024-01-15T00:04:39;22.00;55.30
30244;DHT22;64022;53.652;9.792;2024-01-15T00:07:07;22.00;55.10
30244;DHT22;64022;53.652;9.792;2024-01-15T00:09:34;22.00;55.20
30244;DHT22;64022;53.652;9.792;2024-01-15T00:12:01;22.00;55.00
30244;DHT22;64022;53.652;9.792;2024-01-15T00:14:28;22.00;55.00
30244;DHT22;64022;53.652;9.792;2024-01-15T00:16:54;22.00;55.00
30244;DHT22;64022;53.652;9.792;2024-01-15T00:19:22;22.00;54.90
30244;DHT22;64022;53.652;9.792;2024-01-15T00:21:50;22.00;55.00
30244;DHT22;64022;53.652;9.792;2024-01-15T00:24:19;22.00;55.10
30244;DHT22;64022;53.652;9.792;2024-01-15T00:26:47;22.00;55.10
30244;DHT22;64022;53.652;9.792;2024-01-15T00:29:13;22.00;55.20
30244;DHT22;64022;53.652;9.792;2024-01-15T00:31:40;22.00;55.10
30244;DHT22;64022;53.652;9.792;2024-01-15T00:34:07;22.00;55.50
30244;DHT22;64022;53.652;9.792;2024-01-15T00:36:32;22.00;54.90
30244;DHT22;64022;53.652;9.792;2024-01-15T00:38:59;22.00;55.00
30244;DHT22;64022;53.652;9.792;2024-01-15T00:41:25;22.00;55.20
30244;DHT22;64022;53.652;9.792;2024-01-15T00:43:54;22.00;55.10
30244;DHT22;64022;53.652;9.792;2024-01-15T00:46:21;22.00;54.90
30244;DHT22;64022;53.652;9.792;2024-01-15T00:48:47;22.00;55.20
30244;DHT22;64022;53.652;9.792;2024-01-15T00:51:13;22.00;54.90
30244;DHT22;64022;53.652;9.792;2024-01-15T00:53:40;22.00;55.00
30244;DHT22;64022;53.652;9.792;2024-01-15T00:56:06;22.00;55.00
30244;DHT22;64022;53.652;9.792;2024-01-15T00:58:32;22.00;55.00
30244;DHT22;64022;53.652;9.792;2024-01-15T01:00:58;22.00;55.00
30244;DHT22;64022;53.652;9.792;2024-01-15T01:03:24;22.00;55.10
30244;DHT22;64022;53.652;9.792;2024-01-15T01:05:52;22.00;55.20
30244;DHT22;64022;53.652;9.792;2024-01-15T01:08:20;22.00;55.10
30244;DHT22;64022;53.652;9.792;2024-01-15T01:10:45;22.00;55.00
30244;DHT22;64022;53.652;9.792;2024-01-15T01:13:11;22.00;55.20
30244;DHT22;64022;53.652;9.792;2024-01-15T01:15:41;22.00;55.10
30244;DHT22;64022;53.652;9.792;2024-01-15T01:18:07;22.00;55.00
30244;DHT22;64022;53.652;9.792;2024-01-15T01:20:33;22.00;55.00
30244;DHT22;64022;53.652;9.792;2024-01-15T01:23:01;22.00;55.00
30244;DHT22;64022;53.652;9.792;2024-01-15T01:25:29;22.00;55.00
30244;DHT22;64022;53.652;9.792;2024-01-15T01:27:55;22.00;55.00
30244;DHT22;64022;53.652;9.792;2024-01-15T01:30:22;22.10;55.10
30244;DHT22;64022;53.652;9.792;2024-01-15T01:32:50;22.00;55.10
30244;DHT22;64022;53.652;9.792;2024-01-15T01:35:18;22.00;55.10
30244;DHT22;64022;53.652;9.792;2024-01-15T01:37:44;22.10;55.10
30244;DHT22;64022;53.652;9.792;2024-01-15T01:40:10;22.00;55.10
30244;DHT22;64022;53.652;9.792;2024-01-15T01:42:36;22.00;55.10
30244;DHT22;64022;53.652;9.792;2024-01-15T01:45:02;22.00;55.10
30244;DHT22;64022;53.652;9.792;2024-01-15T01:47:30;22.00;55.10
30244;DHT22;64022;53.652;9.792;2024-01-15T01:49:55;22.10;55.20
30244;DHT22;64022;53.652;9.792;2024-01-15T01:52:21;22.00;55.30
30244;DHT22;64022;53.652;9.792;2024-01-15T01:54:48;22.00;55.20
30244;DHT22;64022;53.652;9.792;2024-01-15T01:57:15;22.00;55.10
30244;DHT22;64022;53.652;9.792;2024-01-15T01:59:44;22.10;55.20
30244;DHT22;64022;53.652;9.792;2024-01-15T02:02:11;22.00;55.00
30244;DHT22;64022;53.652;9.792;2024-01-15T02:04:37;22.00;55.10
30244;DHT22;64022;53.652;9.792;2024-01-15T02:07:04;22.00;55.10
30244;DHT22;64022;53.652;9.792;2024-01-15T02:09:31;22.00;55.00
30244;DHT22;64022;53.652;9.792;2024-01-15T02:11:58;22.00;55.10
30244;DHT22;64022;53.652;9.792;2024-01-15T02:14:23;22.00;55.00
30244;DHT22;64022;53.652;9.792;2024-01-15T02:16:51;22.10;55.10
30244;DHT22;64022;53.652;9.792;2024-01-15T02:19:20;22.00;55.10
30244;DHT22;64022;53.652;9.792;2024-01-15T02:21:47;22.00;55.00
30244;DHT22;64022;53.652;9.792;2024-01-15T02:24:14;22.00;55.00
30244;DHT22;64022;53.652;9.792;2024-01-15T02:26:39;22.00;55.10
30244;DHT22;64022;53.652;9.792;2024-01-15T02:29:06;22.00;55.10
30244;DHT22;64022;53.652;9.792;2024-01-15T02:31:35;22.00;55.10
30244;DHT22;64022;53.652;9.792;2024-01-15T02:34:02;21.90;55.00
30244;DHT22;64022;53.652;9.792;2024-01-15T02:36:31;22.00;55.10
30244;DHT22;64022;53.652;9.792;2024-01-15T02:38:57;22.00;55.10
30244;DHT22;64022;53.652;9.792;2024-01-15T02:41:23;22.00;55.10
30244;DHT22;64022;53.652;9.792;2024-01-15T02:43:50;22.00;55.10
30244;DHT22;64022;53.652;9.792;2024-01-15T02:46:15;22.00;55.10
30244;DHT22;64022;53.652;9.792;2024-01-15T02:48:46;22.00;55.00
30244;DHT22;64022;53.652;9.792;2024-01-15T02:51:13;22.00;54.90
30244;DHT22;64022;53.652;9.792;2024-01-15T02:53:41;22.00;54.90
30244;DHT22;64022;53.652;9.792;2024-01-15T02:56:07;22.00;54.90
30244;DHT22;64022;53.652;9.792;2024-01-15T02:58:33;22.00;54.90
30244;DHT22;64022;53.652;9.792;2024-01-15T03:00:59;22.00;54.90
30244;DHT22;64022;53.652;9.792;2024-01-15T03:03:29;22.00;55.00
30244;DHT22;64022;53.652;9.792;2024-01-15T03:05:56;22.00;55.00
30244;DHT22;64022;53.652;9.792;2024-01-15T03:08:23;22.00;54.90
30244;DHT22;64022;53.652;9.792;2024-01-15T03:10:50;22.00;54.90
30244;DHT22;64022;53.652;9.792;2024-01-15T03:13:20;22.00;55.00
30244;DHT22;64022;53.652;9.792;2024-01-15T03:15:45;22.00;55.10
30244;DHT22;64022;53.652;9.792;2024-01-15T03:18:13;22.00;55.00
30244;DHT22;64022;53.652;9.792;2024-01-15T03:20:39;22.00;55.00
30244;DHT22;64022;53.652;9.792;2024-01-15T03:23:06;22.00;55.00
30244;DHT22;64022;53.652;9.792;2024-01-15T03:25:33;22.00;54.90
30244;DHT22;64022;53.652;9.792;2024-01-15T03:28:01;22.00;55.00
30244;DHT22;64022;53.652;9.792;2024-01-15T03:30:28;22.00;54.90
30244;DHT22;64022;53.652;9.792;2024-01-15T03:32:55;22.00;55.00
30244;DHT22;64022;53.652;9.792;2024-01-15T03:35:24;22.00;54.90
30244;DHT22;64022;53.652;9.792;2024-01-15T03:37:55;22.00;55.00
30244;DHT22;64022;53.652;9.792;2024-01-15T03:40:22;22.00;55.00
30244;DHT22;64022;53.652;9.792;2024-01-15T03:42:51;22.00;55.00
30244;DHT22;64022;53.652;9.792;2024-01-15T03:45:18;22.00;55.00
30244;DHT22;64022;53.652;9.792;2024-01-15T03:47:44;22.00;55.00
30244;DHT22;64022;53.652;9.792;2024-01-15T03:50:10;22.00;54.90
30244;DHT22;64022;53.652;9.792;2024-01-15T03:52:38;22.00;54.80
30244;DHT22;64022;53.652;9.792;2024-01-15T03:55:05;22.00;54.90
30244;DHT22;64022;53.652;9.792;2024-01-15T03:57:33;22.00;54.80
30244;DHT22;64022;53.652;9.792;2024-01-15T03:59:59;22.00;54.80
30244;DHT22;64022;53.652;9.792;2024-01-15T04:02:24;22.00;54.90
30244;DHT22;64022;53.652;9.792;2024-01-15T04:04:51;22.00;54.80
30244;DHT22;64022;53.652;9.792;2024-01-15T04:07:17;22.00;54.90
30244;DHT22;64022;53.652;9.792;2024-01-15T04:09:43;22.00;55.30
30244;DHT22;64022;53.652;9.792;2024-01-15T04:12:10;22.00;54.80
30244;DHT22;64022;53.652;9.792;2024-01-15T04:14:39;22.00;54.80
30244;DHT22;64022;53.652;9.792;2024-01-15T04:17:06;22.00;54.90
30244;DHT22;64022;53.652;9.792;2024-01-15T04:19:34;22.00;54.80
30244;DHT22;64022;53.652;9.792;2024-01-15T04:22:01;22.00;54.90
30244;DHT22;64022;53.652;9.792;2024-01-15T04:24:31;22.00;54.80
30244;DHT22;64022;53.652;9.792;2024-01-15T04:26:58;22.00;54.80
30244;DHT22;64022;53.652;9.792;2024-01-15T04:29:24;22.00;54.80
30244;DHT22;64022;53.652;9.792;2024-01-15T04:31:55;22.00;54.80
30244;DHT22;64022;53.652;9.792;2024-01-15T04:34:22;22.00;54.70
30244;DHT22;64022;53.652;9.792;2024-01-15T04:36:48;22.00;54.70
30244;DHT22;64022;53.652;9.792;2024-01-15T04:39:15;22.00;54.80
30244;DHT22;64022;53.652;9.792;2024-01-15T04:41:41;21.90;54.80
30244;DHT22;64022;53.652;9.792;2024-01-15T04:44:08;21.90;54.70
30244;DHT22;64022;53.652;9.792;2024-01-15T04:46:34;22.00;54.80
30244;DHT22;64022;53.652;9.792;2024-01-15T04:49:01;22.00;54.80
30244;DHT22;64022;53.652;9.792;2024-01-15T04:51:27;21.90;54.70
30244;DHT22;64022;53.652;9.792;2024-01-15T04:54:03;21.90;54.80
30244;DHT22;64022;53.652;9.792;2024-01-15T04:56:29;22.00;54.70
30244;DHT22;64022;53.652;9.792;2024-01-15T04:58:55;21.90;54.50
30244;DHT22;64022;53.652;9.792;2024-01-15T05:01:21;21.90;54.60
30244;DHT22;64022;53.652;9.792;2024-01-15T05:03:48;22.00;54.70
30244;DHT22;64022;53.652;9.792;2024-01-15T05:06:17;22.00;54.80
30244;DHT22;64022;53.652;9.792;2024-01-15T05:08:43;21.90;54.60
30244;DHT22;64022;53.652;9.792;2024-01-15T05:11:10;22.00;54.60
30244;DHT22;64022;53.652;9.792;2024-01-15T05:13:36;21.90;54.60
30244;DHT22;64022;53.652;9.792;2024-01-15T05:16:02;22.00;54.60
30244;DHT22;64022;53.652;9.792;2024-01-15T05:18:31;21.90;54.60
30244;DHT22;64022;53.652;9.792;2024-01-15T05:20:57;21.90;54.60
30244;DHT22;64022;53.652;9.792;2024-01-15T05:23:23;21.90;54.60
30244;DHT22;64022;53.652;9.792;2024-01-15T05:25:49;21.90;54.60
30244;DHT22;64022;53.652;9.792;2024-01-15T05:28:16;21.90;54.60
30244;DHT22;64022;53.652;9.792;2024-01-15T05:30:43;22.00;54.70
30244;DHT22;64022;53.652;9.792;2024-01-15T05:33:11;21.90;54.60
30244;DHT22;64022;53.652;9.792;2024-01-15T05:35:37;21.90;54.60
30244;DHT22;64022;53.652;9.792;2024-01-15T05:38:04;21.90;54.50
30244;DHT22;64022;53.652;9.792;2024-01-15T05:40:30;21.90;54.60
30244;DHT22;64022;53.652;9.792;2024-01-15T05:42:57;21.90;55.10
30244;DHT22;64022;53.652;9.792;2024-01-15T05:45:22;22.00;54.60
30244;DHT22;64022;53.652;9.792;2024-01-15T05:47:49;22.00;54.60
30244;DHT22;64022;53.652;9.792;2024-01-15T05:50:15;21.90;54.60
30244;DHT22;64022;53.652;9.792;2024-01-15T05:52:42;22.00;54.50
30244;DHT22;64022;53.652;9.792;2024-01-15T05:55:08;22.00;54.60
30244;DHT22;64022;53.652;9.792;2024-01-15T05:57:36;22.00;54.60
30244;DHT22;64022;53.652;9.792;2024-01-15T06:00:03;22.00;54.40
30244;DHT22;64022;53.652;9.792;2024-01-15T06:02:29;22.00;54.50
30244;DHT22;64022;53.652;9.792;2024-01-15T06:04:57;21.90;54.40
30244;DHT22;64022;53.652;9.792;2024-01-15T06:07:23;21.90;54.50
30244;DHT22;64022;53.652;9.792;2024-01-15T06:09:50;22.10;54.60
30244;DHT22;64022;53.652;9.792;2024-01-15T06:12:16;22.00;54.60
30244;DHT22;64022;53.652;9.792;2024-01-15T06:14:43;22.00;54.50
30244;DHT22;64022;53.652;9.792;2024-01-15T06:17:10;22.00;54.40
30244;DHT22;64022;53.652;9.792;2024-01-15T06:19:36;22.10;54.60
30244;DHT22;64022;53.652;9.792;2024-01-15T06:22:03;22.00;54.50
30244;DHT22;64022;53.652;9.792;2024-01-15T06:24:30;22.00;54.60
30244;DHT22;64022;53.652;9.792;2024-01-15T06:26:56;22.00;54.40
30244;DHT22;64022;53.652;9.792;2024-01-15T06:29:24;21.90;53.70
30244;DHT22;64022;53.652;9.792;2024-01-15T06:31:51;21.80;51.80
30244;DHT22;64022;53.652;9.792;2024-01-15T06:34:18;21.50;50.80
30244;DHT22;64022;53.652;9.792;2024-01-15T06:36:44;21.40;51.50
30244;DHT22;64022;53.652;9.792;2024-01-15T06:39:11;21.30;52.00
30244;DHT22;64022;53.652;9.792;2024-01-15T06:41:38;21.20;52.20
30244;DHT22;64022;53.652;9.792;2024-01-15T06:44:12;21.30;52.50
30244;DHT22;64022;53.652;9.792;2024-01-15T06:46:42;21.30;52.60
30244;DHT22;64022;53.652;9.792;2024-01-15T06:49:09;21.30;52.70
30244;DHT22;64022;53.652;9.792;2024-01-15T06:51:36;21.40;52.80
30244;DHT22;64022;53.652;9.792;2024-01-15T06:54:03;21.40;52.90
30244;DHT22;64022;53.652;9.792;2024-01-15T06:56:31;21.40;53.00
30244;DHT22;64022;53.652;9.792;2024-01-15T06:58:58;21.40;53.00
30244;DHT22;64022;53.652;9.792;2024-01-15T07:01:26;21.40;53.00
30244;DHT22;64022;53.652;9.792;2024-01-15T07:03:54;21.50;53.10
30244;DHT22;64022;53.652;9.792;2024-01-15T07:06:21;21.50;53.30
30244;DHT22;64022;53.652;9.792;2024-01-15T07:08:49;21.50;53.20
30244;DHT22;64022;53.652;9.792;2024-01-15T07:11:18;21.50;53.30
30244;DHT22;64022;53.652;9.792;2024-01-15T07:13:44;21.60;53.40
30244;DHT22;64022;53.652;9.792;2024-01-15T07:16:11;21.60;53.20
30244;DHT22;64022;53.652;9.792;2024-01-15T07:18:36;21.60;53.40
30244;DHT22;64022;53.652;9.792;2024-01-15T07:21:04;21.60;53.30
30244;DHT22;64022;53.652;9.792;2024-01-15T07:23:31;21.60;53.40
30244;DHT22;64022;53.652;9.792;2024-01-15T07:26:01;21.70;53.40
30244;DHT22;64022;53.652;9.792;2024-01-15T07:28:28;21.70;53.40
30244;DHT22;64022;53.652;9.792;2024-01-15T07:30:54;21.70;53.40
30244;DHT22;64022;53.652;9.792;2024-01-15T07:33:26;21.70;53.40
30244;DHT22;64022;53.652;9.792;2024-01-15T07:35:55;21.70;53.30
30244;DHT22;64022;53.652;9.792;2024-01-15T07:38:23;21.70;53.30
30244;DHT22;64022;53.652;9.792;2024-01-15T07:40:49;21.70;53.40
30244;DHT22;64022;53.652;9.792;2024-01-15T07:43:16;21.70;53.40
30244;DHT22;64022;53.652;9.792;2024-01-15T07:45:42;21.80;53.30
30244;DHT22;64022;53.652;9.792;2024-01-15T07:48:09;21.70;51.60
30244;DHT22;64022;53.652;9.792;2024-01-15T07:50:36;21.40;49.70
30244;DHT22;64022;53.652;9.792;2024-01-15T07:53:04;21.10;48.50
30244;DHT22;64022;53.652;9.792;2024-01-15T07:55:30;20.70;47.50
30244;DHT22;64022;53.652;9.792;2024-01-15T07:57:56;20.40;46.80
30244;DHT22;64022;53.652;9.792;2024-01-15T08:00:25;20.20;46.60
30244;DHT22;64022;53.652;9.792;2024-01-15T08:02:51;20.00;47.20
30244;DHT22;64022;53.652;9.792;2024-01-15T08:05:18;19.90;48.10
30244;DHT22;64022;53.652;9.792;2024-01-15T08:07:45;19.90;48.70
30244;DHT22;64022;53.652;9.792;2024-01-15T08:10:11;20.00;49.70
30244;DHT22;64022;53.652;9.792;2024-01-15T08:12:39;20.00;49.40
30244;DHT22;64022;53.652;9.792;2024-01-15T08:15:07;20.10;49.80
30244;DHT22;64022;53.652;9.792;2024-01-15T08:17:34;20.20;49.90
30244;DHT22;64022;53.652;9.792;2024-01-15T08:20:00;20.30;50.10
30244;DHT22;64022;53.652;9.792;2024-01-15T08:22:27;20.30;50.20
30244;DHT22;64022;53.652;9.792;2024-01-15T08:24:52;20.30;50.20
30244;DHT22;64022;53.652;9.792;2024-01-15T08:27:19;20.40;50.40
30244;DHT22;64022;53.652;9.792;2024-01-15T08:29:45;20.50;50.40
30244;DHT22;64022;53.652;9.792;2024-01-15T08:32:13;20.60;50.70
30244;DHT22;64022;53.652;9.792;2024-01-15T08:34:41;20.60;50.60
30244;DHT22;64022;53.652;9.792;2024-01-15T08:37:09;20.60;50.90
30244;DHT22;64022;53.652;9.792;2024-01-15T08:39:35;20.70;51.50
30244;DHT22;64022;53.652;9.792;2024-01-15T08:42:05;20.70;51.00
30244;DHT22;64022;53.652;9.792;2024-01-15T08:44:31;20.70;50.90
30244;DHT22;64022;53.652;9.792;2024-01-15T08:46:57;20.70;50.90
30244;DHT22;64022;53.652;9.792;2024-01-15T08:49:23;20.80;51.20
30244;DHT22;64022;53.652;9.792;2024-01-15T08:51:49;20.80;51.00
30244;DHT22;64022;53.652;9.792;2024-01-15T08:54:17;20.80;50.90
30244;DHT22;64022;53.652;9.792;2024-01-15T08:56:43;20.90;51.10
30244;DHT22;64022;53.652;9.792;2024-01-15T08:59:10;20.90;51.00
30244;DHT22;64022;53.652;9.792;2024-01-15T09:01:38;20.90;51.00
30244;DHT22;64022;53.652;9.792;2024-01-15T09:04:04;20.90;51.60
30244;DHT22;64022;53.652;9.792;2024-01-15T09:06:30;21.00;51.10
30244;DHT22;64022;53.652;9.792;2024-01-15T09:08:56;21.00;51.10
30244;DHT22;64022;53.652;9.792;2024-01-15T09:11:22;21.00;51.20
30244;DHT22;64022;53.652;9.792;2024-01-15T09:13:50;21.00;51.00
30244;DHT22;64022;53.652;9.792;2024-01-15T09:16:18;21.00;51.10
30244;DHT22;64022;53.652;9.792;2024-01-15T09:18:45;21.00;51.00
30244;DHT22;64022;53.652;9.792;2024-01-15T09:21:13;21.10;51.20
30244;DHT22;64022;53.652;9.792;2024-01-15T09:23:39;21.10;51.20
30244;DHT22;64022;53.652;9.792;2024-01-15T09:26:08;21.10;51.20
30244;DHT22;64022;53.652;9.792;2024-01-15T09:28:36;21.10;51.10
30244;DHT22;64022;53.652;9.792;2024-01-15T09:31:03;21.10;51.10
30244;DHT22;64022;53.652;9.792;2024-01-15T09:33:29;21.10;51.00
30244;DHT22;64022;53.652;9.792;2024-01-15T09:35:55;21.20;51.10
30244;DHT22;64022;53.652;9.792;2024-01-15T09:38:24;21.10;51.00
30244;DHT22;64022;53.652;9.792;2024-01-15T09:40:51;21.20;51.10
30244;DHT22;64022;53.652;9.792;2024-01-15T09:43:18;21.20;51.10
30244;DHT22;64022;53.652;9.792;2024-01-15T09:45:45;21.20;51.10
30244;DHT22;64022;53.652;9.792;2024-01-15T09:48:12;21.20;51.10
30244;DHT22;64022;53.652;9.792;2024-01-15T09:50:38;21.20;51.10
30244;DHT22;64022;53.652;9.792;2024-01-15T09:53:05;21.30;51.20
30244;DHT22;64022;53.652;9.792;2024-01-15T09:55:31;21.20;51.10
30244;DHT22;64022;53.652;9.792;2024-01-15T09:58:00;21.30;50.90
30244;DHT22;64022;53.652;9.792;2024-01-15T10:00:26;21.30;51.00
30244;DHT22;64022;53.652;9.792;2024-01-15T10:02:53;21.30;50.80
30244;DHT22;64022;53.652;9.792;2024-01-15T10:05:19;21.30;51.00
30244;DHT22;64022;53.652;9.792;2024-01-15T10:07:46;21.30;50.90
30244;DHT22;64022;53.652;9.792;2024-01-15T10:10:13;21.30;51.00
30244;DHT22;64022;53.652;9.792;2024-01-15T10:12:42;21.30;50.80
30244;DHT22;64022;53.652;9.792;2024-01-15T10:15:09;21.30;50.80
30244;DHT22;64022;53.652;9.792;2024-01-15T10:17:37;21.30;50.80
30244;DHT22;64022;53.652;9.792;2024-01-15T10:20:07;21.30;50.80
30244;DHT22;64022;53.652;9.792;2024-01-15T10:22:35;21.30;50.90
30244;DHT22;64022;53.652;9.792;2024-01-15T10:25:02;21.30;50.80
30244;DHT22;64022;53.652;9.792;2024-01-15T10:27:29;21.30;50.90
30244;DHT22;64022;53.652;9.792;2024-01-15T10:29:59;21.30;50.80
30244;DHT22;64022;53.652;9.792;2024-01-15T10:32:25;21.40;50.90
30244;DHT22;64022;53.652;9.792;2024-01-15T10:34:52;21.30;50.80
30244;DHT22;64022;53.652;9.792;2024-01-15T10:37:18;21.40;50.80
30244;DHT22;64022;53.652;9.792;2024-01-15T10:39:46;21.40;50.70
30244;DHT22;64022;53.652;9.792;2024-01-15T10:42:12;21.40;50.70
30244;DHT22;64022;53.652;9.792;2024-01-15T10:44:38;21.40;50.90
30244;DHT22;64022;53.652;9.792;2024-01-15T10:47:04;21.40;50.80
30244;DHT22;64022;53.652;9.792;2024-01-15T10:49:30;21.40;50.90
30244;DHT22;64022;53.652;9.792;2024-01-15T10:51:57;21.40;50.70
30244;DHT22;64022;53.652;9.792;2024-01-15T10:54:23;21.40;50.70
30244;DHT22;64022;53.652;9.792;2024-01-15T10:56:50;21.40;50.90
30244;DHT22;64022;53.652;9.792;2024-01-15T10:59:18;21.40;50.90
30244;DHT22;64022;53.652;9.792;2024-01-15T11:01:46;21.40;50.80
30244;DHT22;64022;53.652;9.792;2024-01-15T11:04:13;21.40;50.70
30244;DHT22;64022;53.652;9.792;2024-01-15T11:06:49;21.40;50.70
30244;DHT22;64022;53.652;9.792;2024-01-15T11:09:16;21.40;50.70
30244;DHT22;64022;53.652;9.792;2024-01-15T11:11:45;21.50;50.80
30244;DHT22;64022;53.652;9.792;2024-01-15T11:14:34;21.40;50.90
30244;DHT22;64022;53.652;9.792;2024-01-15T11:17:01;21.50;50.80
30244;DHT22;64022;53.652;9.792;2024-01-15T11:25:01;21.50;50.80
30244;DHT22;64022;53.652;9.792;2024-01-15T11:27:40;21.50;50.80
30244;DHT22;64022;53.652;9.792;2024-01-15T11:30:11;21.50;50.80
30244;DHT22;64022;53.652;9.792;2024-01-15T11:32:36;21.50;50.70
30244;DHT22;64022;53.652;9.792;2024-01-15T11:35:03;21.50;50.70
30244;DHT22;64022;53.652;9.792;2024-01-15T11:37:56;21.50;50.70
30244;DHT22;64022;53.652;9.792;2024-01-15T11:40:20;21.50;50.70
30244;DHT22;64022;53.652;9.792;2024-01-15T11:42:46;21.50;50.70
30244;DHT22;64022;53.652;9.792;2024-01-15T11:45:18;21.50;50.70
30244;DHT22;64022;53.652;9.792;2024-01-15T11:50:30;21.60;50.70
30244;DHT22;64022;53.652;9.792;2024-01-15T11:53:01;21.50;50.70
30244;DHT22;64022;53.652;9.792;2024-01-15T11:55:30;21.50;50.70
30244;DHT22;64022;53.652;9.792;2024-01-15T11:58:00;21.60;50.80
30244;DHT22;64022;53.652;9.792;2024-01-15T12:00:26;21.50;50.70
30244;DHT22;64022;53.652;9.792;2024-01-15T12:02:54;21.60;50.60
30244;DHT22;64022;53.652;9.792;2024-01-15T12:05:23;21.60;50.50
30244;DHT22;64022;53.652;9.792;2024-01-15T12:07:49;21.60;50.70
30244;DHT22;64022;53.652;9.792;2024-01-15T12:10:16;21.50;50.60
30244;DHT22;64022;53.652;9.792;2024-01-15T12:12:53;21.50;50.60
30244;DHT22;64022;53.652;9.792;2024-01-15T12:15:22;21.60;50.60
30244;DHT22;64022;53.652;9.792;2024-01-15T12:17:57;21.60;50.60
30244;DHT22;64022;53.652;9.792;2024-01-15T12:20:25;21.60;50.60
30244;DHT22;64022;53.652;9.792;2024-01-15T12:22:53;21.60;50.60
30244;DHT22;64022;53.652;9.792;2024-01-15T12:25:23;21.60;50.70
30244;DHT22;64022;53.652;9.792;2024-01-15T12:27:49;21.60;50.60
30244;DHT22;64022;53.652;9.792;2024-01-15T12:30:17;21.60;50.70
30244;DHT22;64022;53.652;9.792;2024-01-15T12:32:45;21.60;50.60
30244;DHT22;64022;53.652;9.792;2024-01-15T12:35:15;21.60;50.60
30244;DHT22;64022;53.652;9.792;2024-01-15T12:37:42;21.60;50.70
30244;DHT22;64022;53.652;9.792;2024-01-15T12:40:11;21.60;50.70
30244;DHT22;64022;53.652;9.792;2024-01-15T12:42:38;21.60;50.60
30244;DHT22;64022;53.652;9.792;2024-01-15T12:45:06;21.60;50.60
30244;DHT22;64022;53.652;9.792;2024-01-15T12:47:34;21.60;50.40
30244;DHT22;64022;53.652;9.792;2024-01-15T12:50:01;21.60;50.50
30244;DHT22;64022;53.652;9.792;2024-01-15T12:52:27;21.60;50.50
30244;DHT22;64022;53.652;9.792;2024-01-15T12:54:53;21.60;50.50
30244;DHT22;64022;53.652;9.792;2024-01-15T12:57:19;21.60;50.60
30244;DHT22;64022;53.652;9.792;2024-01-15T12:59:45;21.60;50.50
30244;DHT22;64022;53.652;9.792;2024-01-15T13:02:13;21.60;50.60
30244;DHT22;64022;53.652;9.792;2024-01-15T13:04:40;21.60;50.60
30244;DHT22;64022;53.652;9.792;2024-01-15T13:07:07;21.60;50.60
30244;DHT22;64022;53.652;9.792;2024-01-15T13:09:33;21.60;50.50
30244;DHT22;64022;53.652;9.792;2024-01-15T13:11:59;21.60;50.50
30244;DHT22;64022;53.652;9.792;2024-01-15T13:14:26;21.70;50.60
30244;DHT22;64022;53.652;9.792;2024-01-15T13:16:53;21.70;50.60
30244;DHT22;64022;53.652;9.792;2024-01-15T13:19:20;21.60;50.60
30244;DHT22;64022;53.652;9.792;2024-01-15T13:21:48;21.70;50.60
30244;DHT22;64022;53.652;9.792;2024-01-15T13:24:17;21.60;50.50
30244;DHT22;64022;53.652;9.792;2024-01-15T13:26:44;21.70;50.60
30244;DHT22;64022;53.652;9.792;2024-01-15T13:29:10;21.60;50.60
30244;DHT22;64022;53.652;9.792;2024-01-15T13:31:38;21.70;50.60
30244;DHT22;64022;53.652;9.792;2024-01-15T13:34:04;21.70;50.60
30244;DHT22;64022;53.652;9.792;2024-01-15T13:36:36;21.70;50.50
30244;DHT22;64022;53.652;9.792;2024-01-15T13:39:04;21.70;50.50
30244;DHT22;64022;53.652;9.792;2024-01-15T13:41:36;21.70;50.50
30244;DHT22;64022;53.652;9.792;2024-01-15T13:44:05;21.70;50.50
30244;DHT22;64022;53.652;9.792;2024-01-15T13:46:31;21.70;50.40
30244;DHT22;64022;53.652;9.792;2024-01-15T13:48:57;21.70;50.50
30244;DHT22;64022;53.652;9.792;2024-01-15T13:51:23;21.70;50.40
30244;DHT22;64022;53.652;9.792;2024-01-15T13:53:51;21.70;50.40
30244;DHT22;64022;53.652;9.792;2024-01-15T13:56:20;21.70;50.40
30244;DHT22;64022;53.652;9.792;2024-01-15T13:58:47;21.70;50.60
30244;DHT22;64022;53.652;9.792;2024-01-15T14:01:14;21.70;50.40
30244;DHT22;64022;53.652;9.792;2024-01-15T14:03:40;21.70;50.50
30244;DHT22;64022;53.652;9.792;2024-01-15T14:06:08;21.70;50.30
30244;DHT22;64022;53.652;9.792;2024-01-15T14:08:38;21.70;50.40
30244;DHT22;64022;53.652;9.792;2024-01-15T14:11:06;21.70;50.40
30244;DHT22;64022;53.652;9.792;2024-01-15T14:13:33;21.70;50.40
30244;DHT22;64022;53.652;9.792;2024-01-15T14:15:59;21.70;50.30
30244;DHT22;64022;53.652;9.792;2024-01-15T14:18:27;21.70;50.30
30244;DHT22;64022;53.652;9.792;2024-01-15T14:20:53;21.70;50.30
30244;DHT22;64022;53.652;9.792;2024-01-15T14:23:21;21.70;50.30
30244;DHT22;64022;53.652;9.792;2024-01-15T14:25:47;21.70;50.20
30244;DHT22;64022;53.652;9.792;2024-01-15T14:28:15;21.70;50.20
30244;DHT22;64022;53.652;9.792;2024-01-15T14:30:42;21.70;50.20
30244;DHT22;64022;53.652;9.792;2024-01-15T14:33:08;21.70;50.20
30244;DHT22;64022;53.652;9.792;2024-01-15T14:35:36;21.70;50.30
30244;DHT22;64022;53.652;9.792;2024-01-15T14:38:02;21.70;50.30
30244;DHT22;64022;53.652;9.792;2024-01-15T14:40:28;21.70;50.20
30244;DHT22;64022;53.652;9.792;2024-01-15T14:42:55;21.70;50.30
30244;DHT22;64022;53.652;9.792;2024-01-15T14:45:22;21.70;50.20
30244;DHT22;64022;53.652;9.792;2024-01-15T14:47:48;21.70;50.10
30244;DHT22;64022;53.652;9.792;2024-01-15T14:50:16;21.70;50.30
30244;DHT22;64022;53.652;9.792;2024-01-15T14:52:44;21.70;50.30
30244;DHT22;64022;53.652;9.792;2024-01-15T14:55:12;21.70;50.40
30244;DHT22;64022;53.652;9.792;2024-01-15T14:57:39;21.70;50.40
30244;DHT22;64022;53.652;9.792;2024-01-15T15:00:07;21.70;50.20
30244;DHT22;64022;53.652;9.792;2024-01-15T15:02:35;21.70;50.30
30244;DHT22;64022;53.652;9.792;2024-01-15T15:05:02;21.70;50.40
30244;DHT22;64022;53.652;9.792;2024-01-15T15:07:29;21.70;50.30
30244;DHT22;64022;53.652;9.792;2024-01-15T15:10:02;21.70;50.70
30244;DHT22;64022;53.652;9.792;2024-01-15T15:12:32;21.70;50.30
30244;DHT22;64022;53.652;9.792;2024-01-15T15:14:59;21.70;50.20
30244;DHT22;64022;53.652;9.792;2024-01-15T15:17:34;21.70;50.20
30244;DHT22;64022;53.652;9.792;2024-01-15T15:20:00;21.70;50.20
30244;DHT22;64022;53.652;9.792;2024-01-15T15:22:29;21.70;50.20
30244;DHT22;64022;53.652;9.792;2024-01-15T15:24:55;21.70;50.20
30244;DHT22;64022;53.652;9.792;2024-01-15T15:27:23;21.70;50.20
30244;DHT22;64022;53.652;9.792;2024-01-15T15:29:51;21.70;50.00
30244;DHT22;64022;53.652;9.792;2024-01-15T15:32:19;21.70;50.10
30244;DHT22;64022;53.652;9.792;2024-01-15T15:34:45;21.70;50.10
30244;DHT22;64022;53.652;9.792;2024-01-15T15:37:13;21.70;50.00
30244;DHT22;64022;53.652;9.792;2024-01-15T15:39:42;21.70;50.00